Time;durP1;ratioP1;P1;durP2;ratioP2;P2;SDS_P1;SDS_P2;PMS_P1;PMS_P2;Temp;Humidity;BMP_temperature;BMP_pressure;BME280_temperature;BME280_humidity;BME280_pressure;Samples;Min_cycle;Max_cycle;Signal;HPM_P1;HPM_P2
2022/08/17 00:01:39;;;;;;;27.15;23.80;;;;;;;;;;5069404;28;20188;-64
2022/08/17 00:04:04;;;;;;;27.77;24.17;;;;;;;;;;5068995;28;20180;-64
2022/08/17 00:06:30;;;;;;;30.10;24.60;;;;;;;;;;5050341;28;20193;-64
2022/08/17 00:09:02;;;;;;;32.35;25.73;;;;;;;;;;5068719;28;20558;-64
2022/08/17 00:11:34;;;;;;;27.27;24.33;;;;;;;;;;5053067;28;20684;-64
2022/08/17 00:14:04;;;;;;;27.13;23.27;;;;;;;;;;5059599;28;20895;-64
2022/08/17 00:16:33;;;;;;;29.30;24.15;;;;;;;;;;5051756;28;21055;-65
2022/08/17 00:19:01;;;;;;;28.02;24.10;;;;;;;;;;5049657;28;20177;-64
2022/08/17 00:21:27;;;;;;;28.02;24.73;;;;;;;;;;5049855;28;20637;-64
2022/08/17 00:23:53;;;;;;;29.90;24.50;;;;;;;;;;5065614;28;20173;-64
2022/08/17 00:26:21;;;;;;;28.30;25.27;;;;;;;;;;5053476;28;20184;-64
2022/08/17 00:28:46;;;;;;;28.55;24.67;;;;;;;;;;5061248;28;20476;-64
2022/08/17 00:31:12;;;;;;;28.13;23.85;;;;;;;;;;5052557;28;20235;-64
2022/08/17 00:33:39;;;;;;;27.10;23.25;;;;;;;;;;5053971;28;20275;-64
2022/08/17 00:36:06;;;;;;;27.88;23.77;;;;;;;;;;5069299;28;20698;-64
2022/08/17 00:38:33;;;;;;;26.50;23.30;;;;;;;;;;5053675;28;20601;-64
2022/08/17 00:41:02;;;;;;;26.55;23.17;;;;;;;;;;5059852;28;20208;-64
2022/08/17 00:43:32;;;;;;;24.48;21.88;;;;;;;;;;5045474;28;20232;-64
2022/08/17 00:46:00;;;;;;;26.73;21.85;;;;;;;;;;5049795;28;20181;-64
2022/08/17 00:48:27;;;;;;;22.45;19.98;;;;;;;;;;5052578;28;20261;-64
2022/08/17 00:51:05;;;;;;;22.27;19.88;;;;;;;;;;5056326;28;20197;-64
2022/08/17 00:53:33;;;;;;;23.05;18.40;;;;;;;;;;5063578;28;20273;-64
2022/08/17 00:56:02;;;;;;;21.45;17.80;;;;;;;;;;5055318;28;20185;-64
2022/08/17 00:58:28;;;;;;;21.63;18.25;;;;;;;;;;5068669;28;20193;-64
2022/08/17 01:00:53;;;;;;;19.77;17.67;;;;;;;;;;5048542;28;20188;-64
2022/08/17 01:03:24;;;;;;;24.60;19.92;;;;;;;;;;5059666;28;20272;-64
2022/08/17 01:05:52;;;;;;;24.23;19.42;;;;;;;;;;5050159;28;20168;-64
2022/08/17 01:08:23;;;;;;;22.75;19.08;;;;;;;;;;5062633;28;20212;-64
2022/08/17 01:10:52;;;;;;;23.00;20.58;;;;;;;;;;5068476;28;20238;-64
2022/08/17 01:13:19;;;;;;;23.35;18.15;;;;;;;;;;5060675;28;20185;-64
2022/08/17 01:16:01;;;;;;;21.17;19.00;;;;;;;;;;5059735;28;20533;-64
2022/08/17 01:18:27;;;;;;;20.33;18.13;;;;;;;;;;5068320;28;20196;-64
2022/08/17 01:20:54;;;;;;;20.88;18.73;;;;;;;;;;5054172;28;20195;-64
2022/08/17 01:23:22;;;;;;;21.63;18.42;;;;;;;;;;5056680;28;20189;-64
2022/08/17 01:25:51;;;;;;;21.20;18.75;;;;;;;;;;5063525;28;20189;-64
2022/08/17 01:28:16;;;;;;;22.00;19.35;;;;;;;;;;5056354;28;20627;-64
2022/08/17 01:30:42;;;;;;;23.98;18.58;;;;;;;;;;5060710;28;20259;-64
2022/08/17 01:33:10;;;;;;;20.83;17.95;;;;;;;;;;5062308;28;20296;-64
2022/08/17 01:35:36;;;;;;;21.58;18.77;;;;;;;;;;5048870;28;20181;-64
2022/08/17 01:38:02;;;;;;;21.48;18.25;;;;;;;;;;5061967;28;20539;-64
2022/08/17 01:40:36;;;;;;;22.88;18.35;;;;;;;;;;5068328;28;20188;-64
2022/08/17 01:43:13;;;;;;;19.25;17.20;;;;;;;;;;5067874;28;20687;-64
2022/08/17 01:45:43;;;;;;;21.25;18.67;;;;;;;;;;5055199;28;20181;-64
2022/08/17 01:48:09;;;;;;;22.73;20.15;;;;;;;;;;5057909;28;20173;-64
2022/08/17 01:50:36;;;;;;;23.95;20.95;;;;;;;;;;5062835;28;20500;-64
2022/08/17 01:53:05;;;;;;;25.45;20.27;;;;;;;;;;5053424;28;20551;-64
2022/08/17 01:55:38;;;;;;;31.75;21.60;;;;;;;;;;5072176;28;20632;-64
2022/08/17 01:58:08;;;;;;;28.45;21.90;;;;;;;;;;5071583;28;20679;-64
2022/08/17 02:00:35;;;;;;;24.23;21.67;;;;;;;;;;5072392;28;20177;-64
2022/08/17 02:03:00;;;;;;;26.80;22.67;;;;;;;;;;5058043;28;20194;-64
2022/08/17 02:05:26;;;;;;;28.92;23.13;;;;;;;;;;5065895;28;20188;-64
2022/08/17 02:07:51;;;;;;;27.50;22.48;;;;;;;;;;5063870;28;20191;-64
2022/08/17 02:10:16;;;;;;;30.88;23.35;;;;;;;;;;5056549;28;20213;-64
2022/08/17 02:12:42;;;;;;;27.08;22.98;;;;;;;;;;5052150;28;20672;-64
2022/08/17 02:15:11;;;;;;;30.90;24.33;;;;;;;;;;5052454;28;20547;-64
2022/08/17 02:17:39;;;;;;;31.88;25.23;;;;;;;;;;5066911;28;20185;-64
2022/08/17 02:20:05;;;;;;;28.60;22.52;;;;;;;;;;5070878;28;20180;-64
2022/08/17 02:22:30;;;;;;;32.35;25.45;;;;;;;;;;5054377;28;20272;-64
2022/08/17 02:24:56;;;;;;;29.52;24.73;;;;;;;;;;5064933;28;20681;-64
2022/08/17 02:27:21;;;;;;;29.17;25.17;;;;;;;;;;5057314;28;20232;-64
2022/08/17 02:29:47;;;;;;;31.02;26.35;;;;;;;;;;5053190;28;20173;-64
2022/08/17 02:32:21;;;;;;;32.70;26.10;;;;;;;;;;5059213;28;20205;-64
2022/08/17 02:34:47;;;;;;;28.67;25.50;;;;;;;;;;5053733;28;20208;-64
2022/08/17 02:37:16;;;;;;;29.85;25.38;;;;;;;;;;5061997;28;20641;-64
2022/08/17 02:39:41;;;;;;;31.23;25.77;;;;;;;;;;5066394;28;20246;-64
2022/08/17 02:42:07;;;;;;;30.60;26.63;;;;;;;;;;5065882;28;20227;-64
2022/08/17 02:44:32;;;;;;;29.33;26.13;;;;;;;;;;5058044;28;20193;-64
2022/08/17 02:46:57;;;;;;;28.25;24.58;;;;;;;;;;5055591;28;20180;-64
2022/08/17 02:49:23;;;;;;;30.83;25.25;;;;;;;;;;5060153;28;20264;-64
2022/08/17 02:51:49;;;;;;;31.55;26.17;;;;;;;;;;5053246;28;20204;-64
2022/08/17 02:54:14;;;;;;;28.35;24.60;;;;;;;;;;5051648;28;20530;-64
2022/08/17 02:56:40;;;;;;;31.55;25.40;;;;;;;;;;5064662;28;20183;-64
2022/08/17 02:59:05;;;;;;;30.85;25.45;;;;;;;;;;5058331;28;20229;-64
2022/08/17 03:01:30;;;;;;;29.75;25.58;;;;;;;;;;5071137;28;20271;-65
2022/08/17 03:03:56;;;;;;;26.73;23.13;;;;;;;;;;5068676;28;20192;-64
2022/08/17 03:06:21;;;;;;;27.40;24.02;;;;;;;;;;5059582;28;20200;-64
2022/08/17 03:08:47;;;;;;;28.17;23.08;;;;;;;;;;5061526;28;20185;-64
2022/08/17 03:11:12;;;;;;;28.83;24.35;;;;;;;;;;5060024;28;20640;-64
2022/08/17 03:13:38;;;;;;;26.45;23.63;;;;;;;;;;5069616;28;20504;-64
2022/08/17 03:16:04;;;;;;;29.17;24.92;;;;;;;;;;5071474;28;20225;-64
2022/08/17 03:18:29;;;;;;;30.20;25.23;;;;;;;;;;5070904;28;20181;-64
2022/08/17 03:20:58;;;;;;;28.65;25.55;;;;;;;;;;5060926;28;20566;-64
2022/08/17 03:23:25;;;;;;;32.58;25.63;;;;;;;;;;5062899;28;20178;-64
2022/08/17 03:25:50;;;;;;;29.95;24.85;;;;;;;;;;5051597;28;20275;-64
2022/08/17 03:28:16;;;;;;;31.13;25.52;;;;;;;;;;5050153;28;20312;-64
2022/08/17 03:30:41;;;;;;;31.70;27.00;;;;;;;;;;5063424;28;20258;-64
2022/08/17 03:33:10;;;;;;;31.73;26.77;;;;;;;;;;5054658;28;20206;-64
2022/08/17 03:35:39;;;;;;;33.50;27.58;;;;;;;;;;5060486;28;20180;-64
2022/08/17 03:38:05;;;;;;;34.70;27.60;;;;;;;;;;5053132;28;20563;-64
2022/08/17 03:40:31;;;;;;;32.60;28.48;;;;;;;;;;5050679;28;20183;-64
2022/08/17 03:42:56;;;;;;;33.97;29.33;;;;;;;;;;5063277;28;20193;-64
2022/08/17 03:56:43;;;;;;;38.97;31.08;;;;;;;;;;5064044;28;20266;-65
2022/08/17 03:59:18;;;;;;;42.47;30.98;;;;;;;;;;5056039;28;20553;-64
2022/08/17 04:01:45;;;;;;;37.03;31.83;;;;;;;;;;5054367;28;20176;-64
2022/08/17 04:04:11;;;;;;;39.20;31.48;;;;;;;;;;5049902;28;20197;-64
2022/08/17 04:06:37;;;;;;;36.47;32.28;;;;;;;;;;5049898;28;20182;-64
2022/08/17 04:09:02;;;;;;;39.05;33.33;;;;;;;;;;5063845;28;20382;-65
2022/08/17 04:11:28;;;;;;;41.78;34.15;;;;;;;;;;5062590;28;20209;-64
2022/08/17 04:13:55;;;;;;;46.10;34.13;;;;;;;;;;5052177;28;20200;-64
2022/08/17 04:16:21;;;;;;;43.92;33.90;;;;;;;;;;5052213;28;20186;-64
2022/08/17 04:18:46;;;;;;;41.88;34.10;;;;;;;;;;5063178;28;20258;-64
2022/08/17 04:21:11;;;;;;;41.90;35.42;;;;;;;;;;5049823;28;20186;-64
2022/08/17 04:23:37;;;;;;;41.40;34.97;;;;;;;;;;5057050;28;20656;-64
2022/08/17 04:26:02;;;;;;;42.45;33.88;;;;;;;;;;5063295;28;20257;-64
2022/08/17 04:28:29;;;;;;;44.60;34.80;;;;;;;;;;5053674;28;20347;-64
2022/08/17 04:30:55;;;;;;;44.20;34.55;;;;;;;;;;5055315;28;20222;-64
2022/08/17 04:33:23;;;;;;;41.88;33.97;;;;;;;;;;5051360;28;20217;-65
2022/08/17 04:35:52;;;;;;;46.00;35.20;;;;;;;;;;5061325;28;20184;-65
2022/08/17 04:38:21;;;;;;;43.08;34.03;;;;;;;;;;5049332;28;20579;-64
2022/08/17 04:43:32;;;;;;;43.85;35.97;;;;;;;;;;5054659;28;20613;-65
2022/08/17 04:46:01;;;;;;;44.97;36.30;;;;;;;;;;5069395;28;20173;-65
2022/08/17 04:48:36;;;;;;;44.58;35.53;;;;;;;;;;5057631;28;20180;-64
2022/08/17 04:51:08;;;;;;;45.72;36.60;;;;;;;;;;5068460;28;20250;-64
2022/08/17 04:53:33;;;;;;;42.08;35.15;;;;;;;;;;5050737;28;20193;-64
2022/08/17 04:55:58;;;;;;;48.00;36.53;;;;;;;;;;5059542;28;20271;-64
2022/08/17 04:58:24;;;;;;;44.13;36.15;;;;;;;;;;5052702;28;20314;-64
2022/08/17 05:00:49;;;;;;;47.67;37.15;;;;;;;;;;5058926;28;20227;-64
2022/08/17 05:03:14;;;;;;;43.00;36.70;;;;;;;;;;5049226;28;20189;-65
2022/08/17 05:05:48;;;;;;;42.42;35.88;;;;;;;;;;5067836;28;20195;-65
2022/08/17 05:08:15;;;;;;;42.45;35.83;;;;;;;;;;5065557;28;20219;-64
2022/08/17 05:10:41;;;;;;;50.20;37.65;;;;;;;;;;5054470;28;20561;-64
2022/08/17 05:13:10;;;;;;;46.83;37.90;;;;;;;;;;5056079;28;20181;-65
2022/08/17 05:15:38;;;;;;;47.67;38.15;;;;;;;;;;5051446;28;20177;-64
2022/08/17 05:18:05;;;;;;;48.75;38.55;;;;;;;;;;5058344;28;20269;-65
2022/08/17 05:20:31;;;;;;;47.42;36.80;;;;;;;;;;5061292;28;20184;-65
2022/08/17 05:22:59;;;;;;;47.95;37.75;;;;;;;;;;5048390;28;20185;-65
2022/08/17 05:25:30;;;;;;;42.20;36.08;;;;;;;;;;5062535;28;20201;-65
2022/08/17 05:27:56;;;;;;;50.50;37.85;;;;;;;;;;5052499;28;20225;-65
2022/08/17 05:30:23;;;;;;;46.17;38.28;;;;;;;;;;5051628;28;20577;-65
2022/08/17 05:33:05;;;;;;;50.60;38.60;;;;;;;;;;5056723;28;20205;-65
2022/08/17 05:35:32;;;;;;;46.70;37.83;;;;;;;;;;5058000;28;20288;-65
2022/08/17 05:37:58;;;;;;;45.78;36.83;;;;;;;;;;5048204;28;20272;-65
2022/08/17 05:40:24;;;;;;;48.25;38.85;;;;;;;;;;5049211;28;20264;-65
2022/08/17 05:43:02;;;;;;;48.65;38.53;;;;;;;;;;5061632;28;20246;-65
2022/08/17 05:45:28;;;;;;;48.92;37.20;;;;;;;;;;5047726;28;20200;-65
2022/08/17 05:47:53;;;;;;;46.08;37.83;;;;;;;;;;5061755;28;20181;-65
2022/08/17 05:50:30;;;;;;;44.83;37.25;;;;;;;;;;5062687;28;20209;-65
2022/08/17 05:53:37;;;;;;;42.65;36.58;;;;;;;;;;5048380;28;20177;-65
2022/08/17 05:56:10;;;;;;;44.58;36.70;;;;;;;;;;4996413;28;20194;-65
2022/08/17 05:59:01;;;;;;;42.83;37.20;;;;;;;;;;5000407;28;20195;-66
2022/08/17 06:01:37;;;;;;;45.67;36.50;;;;;;;;;;5022608;28;20197;-65
2022/08/17 06:04:20;;;;;;;43.20;35.25;;;;;;;;;;5054684;28;20666;-65
2022/08/17 06:06:53;;;;;;;46.47;36.95;;;;;;;;;;5067935;28;20188;-65
2022/08/17 06:09:36;;;;;;;46.05;37.20;;;;;;;;;;5063752;28;20378;-65
2022/08/17 06:12:31;;;;;;;47.97;37.25;;;;;;;;;;5067566;28;20210;-65
2022/08/17 06:15:06;;;;;;;44.38;35.88;;;;;;;;;;5068069;28;20185;-65
2022/08/17 06:17:33;;;;;;;44.20;35.45;;;;;;;;;;5067987;28;20186;-65
2022/08/17 06:20:06;;;;;;;47.05;35.88;;;;;;;;;;5055327;28;20575;-66
2022/08/17 06:22:37;;;;;;;41.25;34.13;;;;;;;;;;5061653;28;20212;-65
2022/08/17 06:25:13;;;;;;;41.20;34.55;;;;;;;;;;5050293;28;20562;-65
2022/08/17 06:27:49;;;;;;;45.08;34.25;;;;;;;;;;5052334;28;20259;-67
2022/08/17 06:30:27;;;;;;;41.83;35.05;;;;;;;;;;5053151;28;20343;-66
2022/08/17 06:32:58;;;;;;;42.65;34.00;;;;;;;;;;5068281;28;20197;-65
2022/08/17 06:35:42;;;;;;;41.38;33.20;;;;;;;;;;5072241;28;20683;-65
2022/08/17 06:38:40;;;;;;;36.20;31.98;;;;;;;;;;5071052;28;20540;-65
2022/08/17 06:41:28;;;;;;;38.55;31.83;;;;;;;;;;5070640;28;20181;-65
2022/08/17 06:44:19;;;;;;;44.30;32.55;;;;;;;;;;5060263;28;20584;-66
2022/08/17 06:46:51;;;;;;;38.13;32.95;;;;;;;;;;5067855;28;20251;-66
2022/08/17 06:49:20;;;;;;;40.42;32.33;;;;;;;;;;5053059;28;20276;-66
2022/08/17 06:52:01;;;;;;;38.97;31.15;;;;;;;;;;5054000;28;20207;-64
2022/08/17 06:54:44;;;;;;;38.08;30.27;;;;;;;;;;5051738;28;20196;-65
2022/08/17 06:57:16;;;;;;;37.42;30.95;;;;;;;;;;5056077;28;20180;-66
2022/08/17 07:00:12;;;;;;;34.78;29.10;;;;;;;;;;5069287;28;20699;-64
2022/08/17 07:03:01;;;;;;;33.40;29.90;;;;;;;;;;5051569;28;20559;-66
2022/08/17 07:05:46;;;;;;;36.70;30.27;;;;;;;;;;5053958;28;20594;-65
2022/08/17 07:08:11;;;;;;;35.55;29.40;;;;;;;;;;5071302;28;20211;-65
2022/08/17 07:10:46;;;;;;;42.97;28.63;;;;;;;;;;5069521;28;20196;-68
2022/08/17 07:13:28;;;;;;;34.70;29.00;;;;;;;;;;5070268;28;20203;-65
2022/08/17 07:15:59;;;;;;;39.97;30.33;;;;;;;;;;5070840;28;20636;-65
2022/08/17 07:18:28;;;;;;;35.47;29.85;;;;;;;;;;5070378;28;20188;-65
2022/08/17 07:20:58;;;;;;;32.78;28.20;;;;;;;;;;5069524;28;20211;-65
2022/08/17 07:24:07;;;;;;;35.50;27.92;;;;;;;;;;5061759;28;20292;-65
2022/08/17 07:26:32;;;;;;;32.75;29.15;;;;;;;;;;4988326;28;20352;-65
2022/08/17 07:28:59;;;;;;;33.78;27.05;;;;;;;;;;4988973;28;20192;-65
2022/08/17 07:31:29;;;;;;;31.95;27.88;;;;;;;;;;5032895;28;20259;-64
2022/08/17 07:34:13;;;;;;;34.97;28.88;;;;;;;;;;5056152;28;20185;-64
2022/08/17 07:36:41;;;;;;;35.15;28.92;;;;;;;;;;5068536;28;20188;-65
2022/08/17 07:39:07;;;;;;;33.10;28.00;;;;;;;;;;5068593;28;20276;-65
2022/08/17 07:41:38;;;;;;;31.13;27.70;;;;;;;;;;5051950;28;20595;-65
2022/08/17 07:44:10;;;;;;;32.70;27.65;;;;;;;;;;5050469;28;20689;-63
2022/08/17 07:49:39;;;;;;;39.35;26.52;;;;;;;;;;5041678;28;20250;-64
2022/08/17 07:52:06;;;;;;;32.35;27.63;;;;;;;;;;5051215;28;20194;-65
2022/08/17 07:54:40;;;;;;;32.17;26.83;;;;;;;;;;5058361;28;20200;-65
2022/08/17 07:57:12;;;;;;;33.25;26.65;;;;;;;;;;5054723;28;20180;-64
2022/08/17 07:59:41;;;;;;;33.90;25.58;;;;;;;;;;5061506;28;20224;-64
2022/08/17 08:02:39;;;;;;;31.33;25.95;;;;;;;;;;5054553;28;20177;-66
2022/08/17 08:05:26;;;;;;;39.55;27.58;;;;;;;;;;5068389;28;20267;-65
2022/08/17 08:07:58;;;;;;;31.13;27.50;;;;;;;;;;5066705;28;20515;-64
2022/08/17 08:10:52;;;;;;;34.08;29.23;;;;;;;;;;5055152;28;20201;-64
2022/08/17 08:13:21;;;;;;;35.67;29.42;;;;;;;;;;5033908;28;20247;-64
2022/08/17 08:15:52;;;;;;;33.47;29.77;;;;;;;;;;5068297;28;20269;-65
2022/08/17 08:18:33;;;;;;;36.28;29.77;;;;;;;;;;5067997;28;20718;-65
2022/08/17 08:21:14;;;;;;;36.35;30.23;;;;;;;;;;5055706;28;20187;-65
2022/08/17 08:23:56;;;;;;;35.42;29.48;;;;;;;;;;5053929;28;20180;-65
2022/08/17 08:26:32;;;;;;;36.08;28.45;;;;;;;;;;5060064;28;20663;-64
2022/08/17 08:29:11;;;;;;;34.63;30.33;;;;;;;;;;5060492;28;20511;-65
2022/08/17 08:31:51;;;;;;;37.28;32.20;;;;;;;;;;5071507;28;20212;-65
2022/08/17 08:34:36;;;;;;;40.72;32.08;;;;;;;;;;5063360;28;20189;-66
2022/08/17 08:37:18;;;;;;;39.25;32.13;;;;;;;;;;5061770;28;20249;-65
2022/08/17 08:40:02;;;;;;;38.05;32.08;;;;;;;;;;5051845;28;20260;-65
2022/08/17 08:42:40;;;;;;;41.38;32.35;;;;;;;;;;5066720;28;20180;-65
2022/08/17 08:45:21;;;;;;;38.80;32.97;;;;;;;;;;5058050;28;20276;-65
2022/08/17 08:47:47;;;;;;;37.85;30.73;;;;;;;;;;5056672;28;20211;-65
2022/08/17 08:50:22;;;;;;;41.45;31.92;;;;;;;;;;5059614;28;20718;-65
2022/08/17 08:53:06;;;;;;;37.45;29.73;;;;;;;;;;5054631;28;20173;-65
2022/08/17 08:55:34;;;;;;;38.60;31.33;;;;;;;;;;5060165;28;20260;-65
2022/08/17 08:58:06;;;;;;;36.78;31.52;;;;;;;;;;5051608;28;20234;-65
2022/08/17 09:00:37;;;;;;;37.72;29.92;;;;;;;;;;5058772;28;20184;-66
2022/08/17 09:03:11;;;;;;;32.20;28.83;;;;;;;;;;5051943;28;20196;-66
2022/08/17 09:05:55;;;;;;;40.17;29.92;;;;;;;;;;5057934;28;20180;-65
2022/08/17 09:08:30;;;;;;;34.65;29.13;;;;;;;;;;5071920;28;20596;-65
2022/08/17 09:11:12;;;;;;;32.75;28.40;;;;;;;;;;5060474;28;20234;-66
2022/08/17 09:13:37;;;;;;;36.78;30.58;;;;;;;;;;5058015;28;20185;-69
2022/08/17 09:16:16;;;;;;;36.92;28.98;;;;;;;;;;5064568;28;20230;-68
2022/08/17 09:18:50;;;;;;;33.78;29.48;;;;;;;;;;5054467;28;20215;-66
2022/08/17 09:21:29;;;;;;;37.42;29.33;;;;;;;;;;5068598;28;20639;-66
2022/08/17 09:24:03;;;;;;;34.95;29.00;;;;;;;;;;5067758;28;20188;-66
2022/08/17 09:26:38;;;;;;;33.08;28.05;;;;;;;;;;5068169;28;20590;-66
2022/08/17 09:29:08;;;;;;;36.65;27.58;;;;;;;;;;5051276;28;20188;-65
2022/08/17 09:31:42;;;;;;;35.60;27.92;;;;;;;;;;5070238;28;20229;-66
2022/08/17 09:34:12;;;;;;;33.83;27.60;;;;;;;;;;5064369;28;20226;-66
2022/08/17 09:37:01;;;;;;;34.25;26.75;;;;;;;;;;5067223;28;20172;-66
2022/08/17 09:39:37;;;;;;;35.80;27.00;;;;;;;;;;5048143;28;20255;-67
2022/08/17 09:42:10;;;;;;;34.50;27.45;;;;;;;;;;5048261;28;20185;-66
2022/08/17 09:44:47;;;;;;;34.50;28.80;;;;;;;;;;5062704;28;20177;-66
2022/08/17 09:47:13;;;;;;;31.27;26.27;;;;;;;;;;5055994;28;20314;-66
2022/08/17 09:49:38;;;;;;;31.55;27.45;;;;;;;;;;5058007;28;20220;-69
2022/08/17 09:52:25;;;;;;;35.60;28.20;;;;;;;;;;5061884;28;20563;-73
2022/08/17 09:54:53;;;;;;;31.88;26.60;;;;;;;;;;5052522;28;20433;-66
2022/08/17 09:57:46;;;;;;;32.90;27.35;;;;;;;;;;5068739;28;20617;-69
2022/08/17 10:00:20;;;;;;;33.67;26.60;;;;;;;;;;5053840;28;20185;-66
2022/08/17 10:03:10;;;;;;;32.20;26.20;;;;;;;;;;5059235;28;20181;-66
2022/08/17 10:05:55;;;;;;;33.63;26.85;;;;;;;;;;5048030;28;20197;-66
2022/08/17 10:08:32;;;;;;;35.42;27.25;;;;;;;;;;5064722;28;20180;-67
2022/08/17 10:11:13;;;;;;;33.67;27.23;;;;;;;;;;5063673;28;20213;-64
2022/08/17 10:14:00;;;;;;;33.50;26.83;;;;;;;;;;5065904;28;20779;-66
2022/08/17 10:16:37;;;;;;;30.92;26.70;;;;;;;;;;5063095;28;20550;-64
2022/08/17 10:19:48;;;;;;;36.15;27.60;;;;;;;;;;5071432;28;20176;-65
2022/08/17 10:28:16;;;;;;;28.75;25.73;;;;;;;;;;5066954;28;20248;-65
2022/08/17 10:30:52;;;;;;;36.63;28.23;;;;;;;;;;5054357;28;20200;-67
2022/08/17 10:33:22;;;;;;;30.88;26.52;;;;;;;;;;5055299;28;20583;-66
2022/08/17 10:35:53;;;;;;;34.78;26.83;;;;;;;;;;5063847;28;20177;-66
2022/08/17 10:38:32;;;;;;;32.08;26.63;;;;;;;;;;5056792;28;20263;-66
2022/08/17 10:41:25;;;;;;;29.63;24.75;;;;;;;;;;5060470;28;20637;-66
2022/08/17 10:44:28;;;;;;;29.05;25.60;;;;;;;;;;5060099;28;20184;-66
2022/08/17 10:47:15;;;;;;;31.48;26.08;;;;;;;;;;5070782;28;20215;-67
2022/08/17 10:49:48;;;;;;;33.65;27.17;;;;;;;;;;5057482;28;20777;-66
2022/08/17 10:52:20;;;;;;;34.25;25.92;;;;;;;;;;5051498;28;20220;-66
2022/08/17 10:54:50;;;;;;;28.27;24.90;;;;;;;;;;5065555;28;20262;-66
2022/08/17 10:57:41;;;;;;;38.28;26.63;;;;;;;;;;5052204;28;20376;-66
2022/08/17 11:00:33;;;;;;;31.50;26.70;;;;;;;;;;5066883;28;20276;-68
2022/08/17 11:02:59;;;;;;;34.15;26.15;;;;;;;;;;5059636;28;20228;-67
2022/08/17 11:05:52;;;;;;;35.55;27.60;;;;;;;;;;5064975;28;20628;-67
2022/08/17 11:08:42;;;;;;;29.88;23.48;;;;;;;;;;5068764;28;20188;-66
2022/08/17 11:11:35;;;;;;;26.77;23.88;;;;;;;;;;5060986;28;20235;-66
2022/08/17 11:14:17;;;;;;;29.38;24.13;;;;;;;;;;5054391;28;20278;-69
2022/08/17 11:17:06;;;;;;;28.65;25.63;;;;;;;;;;5070936;28;20189;-66
2022/08/17 11:19:47;;;;;;;32.30;24.27;;;;;;;;;;5059699;28;20215;-66
2022/08/17 11:22:36;;;;;;;29.85;23.00;;;;;;;;;;5068679;28;20649;-66
2022/08/17 11:25:30;;;;;;;26.80;23.90;;;;;;;;;;5051030;28;20189;-66
2022/08/17 11:28:07;;;;;;;26.77;23.92;;;;;;;;;;5049960;28;20217;-66
2022/08/17 11:30:43;;;;;;;30.20;24.50;;;;;;;;;;5062959;28;20208;-68
2022/08/17 11:33:33;;;;;;;29.88;23.05;;;;;;;;;;5049944;28;20201;-67
2022/08/17 11:36:24;;;;;;;30.30;25.13;;;;;;;;;;5063726;28;20183;-66
2022/08/17 11:38:56;;;;;;;29.45;23.75;;;;;;;;;;5051838;28;20717;-65
2022/08/17 11:41:37;;;;;;;29.90;23.38;;;;;;;;;;5065755;28;20178;-66
2022/08/17 11:44:23;;;;;;;28.65;24.00;;;;;;;;;;5049951;28;20649;-66
2022/08/17 11:52:52;;;;;;;31.25;22.75;;;;;;;;;;5053748;28;20292;-66
2022/08/17 11:55:26;;;;;;;27.42;23.38;;;;;;;;;;5060135;28;20193;-66
2022/08/17 11:58:05;;;;;;;24.98;21.27;;;;;;;;;;5049648;28;20283;-66
2022/08/17 12:00:48;;;;;;;29.63;21.92;;;;;;;;;;5062589;28;20181;-65
2022/08/17 12:03:30;;;;;;;25.92;21.80;;;;;;;;;;5059212;28;20620;-66
2022/08/17 12:06:04;;;;;;;27.38;21.73;;;;;;;;;;5049534;28;20224;-66
2022/08/17 12:08:32;;;;;;;27.38;20.90;;;;;;;;;;5068297;28;20591;-66
2022/08/17 12:11:31;;;;;;;25.30;19.77;;;;;;;;;;5063082;28;20251;-66
2022/08/17 12:13:58;;;;;;;21.73;19.52;;;;;;;;;;5052126;28;20517;-67
2022/08/17 12:16:24;;;;;;;21.92;19.50;;;;;;;;;;5069356;28;20200;-66
2022/08/17 12:18:53;;;;;;;22.98;18.48;;;;;;;;;;5052003;28;20655;-66
2022/08/17 12:21:34;;;;;;;21.08;18.30;;;;;;;;;;5058420;28;20277;-66
2022/08/17 12:24:27;;;;;;;22.92;18.13;;;;;;;;;;5055822;28;20189;-66
2022/08/17 12:26:57;;;;;;;19.55;17.52;;;;;;;;;;5050615;28;20821;-66
2022/08/17 12:29:23;;;;;;;25.08;19.20;;;;;;;;;;5049136;28;20708;-66
2022/08/17 12:31:51;;;;;;;22.90;19.77;;;;;;;;;;5057869;28;20217;-66
2022/08/17 12:34:21;;;;;;;22.90;19.40;;;;;;;;;;5058622;28;20196;-66
2022/08/17 12:36:49;;;;;;;22.50;19.95;;;;;;;;;;5058345;28;20177;-66
2022/08/17 12:39:20;;;;;;;22.60;18.98;;;;;;;;;;5050828;28;20523;-66
2022/08/17 12:41:48;;;;;;;24.80;20.38;;;;;;;;;;5054239;28;20568;-66
2022/08/17 12:44:20;;;;;;;26.70;19.40;;;;;;;;;;5059335;28;20310;-66
2022/08/17 12:46:48;;;;;;;24.20;20.45;;;;;;;;;;5064304;28;20663;-66
2022/08/17 12:49:38;;;;;;;25.13;20.80;;;;;;;;;;5059008;28;20184;-66
2022/08/17 12:52:13;;;;;;;31.48;20.63;;;;;;;;;;5057325;28;20688;-66
2022/08/17 12:54:48;;;;;;;21.83;19.55;;;;;;;;;;5052201;28;20176;-66
2022/08/17 12:57:17;;;;;;;23.60;19.67;;;;;;;;;;5053892;28;20288;-66
2022/08/17 12:59:49;;;;;;;27.80;19.08;;;;;;;;;;5058739;28;20196;-66
2022/08/17 13:02:29;;;;;;;22.13;18.60;;;;;;;;;;5058816;28;20671;-65
2022/08/17 13:04:57;;;;;;;25.63;20.90;;;;;;;;;;5061782;28;20215;-65
2022/08/17 13:07:43;;;;;;;25.23;20.33;;;;;;;;;;5060270;28;20217;-65
2022/08/17 13:10:35;;;;;;;23.70;20.25;;;;;;;;;;5058934;28;20235;-65
2022/08/17 13:13:04;;;;;;;25.27;22.50;;;;;;;;;;5053899;28;20217;-65
2022/08/17 13:15:39;;;;;;;26.20;23.17;;;;;;;;;;5064389;28;20275;-65
2022/08/17 13:18:08;;;;;;;27.83;24.80;;;;;;;;;;5058187;28;20187;-65
2022/08/17 13:20:35;;;;;;;29.08;24.90;;;;;;;;;;5065240;28;20192;-65
2022/08/17 13:23:05;;;;;;;30.05;26.63;;;;;;;;;;5063023;28;20200;-65
2022/08/17 13:25:31;;;;;;;30.50;26.52;;;;;;;;;;5065978;28;20585;-66
2022/08/17 13:27:56;;;;;;;32.08;27.83;;;;;;;;;;5053317;28;20843;-65
2022/08/17 13:30:27;;;;;;;32.80;28.85;;;;;;;;;;5047939;28;20308;-65
2022/08/17 13:32:53;;;;;;;31.77;28.38;;;;;;;;;;5053623;28;20196;-65
2022/08/17 13:35:35;;;;;;;31.67;28.25;;;;;;;;;;5047748;28;20185;-65
2022/08/17 13:38:07;;;;;;;35.08;29.85;;;;;;;;;;5060146;28;20263;-65
2022/08/17 13:40:43;;;;;;;35.83;28.90;;;;;;;;;;5048726;28;20272;-64
2022/08/17 13:43:10;;;;;;;32.03;28.48;;;;;;;;;;5051813;28;20241;-64
2022/08/17 13:45:49;;;;;;;32.08;28.50;;;;;;;;;;5052515;28;20189;-64
2022/08/17 13:48:14;;;;;;;33.50;29.60;;;;;;;;;;5051427;28;20189;-65
2022/08/17 13:50:54;;;;;;;36.42;32.45;;;;;;;;;;5052309;28;20300;-64
2022/08/17 13:53:49;;;;;;;39.00;32.78;;;;;;;;;;5053350;28;20181;-65
2022/08/17 13:56:30;;;;;;;41.08;33.40;;;;;;;;;;5065185;28;20498;-65
2022/08/17 13:58:58;;;;;;;34.55;30.70;;;;;;;;;;5051411;28;20177;-64
2022/08/17 14:01:28;;;;;;;35.38;30.60;;;;;;;;;;5064314;28;20181;-65
2022/08/17 14:03:54;;;;;;;38.72;32.40;;;;;;;;;;5070067;28;20188;-65
2022/08/17 14:06:21;;;;;;;37.60;31.27;;;;;;;;;;5070571;28;20238;-65
2022/08/17 14:08:46;;;;;;;36.13;32.13;;;;;;;;;;5067742;28;20174;-65
2022/08/17 14:11:12;;;;;;;38.45;32.92;;;;;;;;;;5064333;28;20263;-64
2022/08/17 14:13:38;;;;;;;41.78;34.13;;;;;;;;;;5065111;28;20547;-64
2022/08/17 14:16:03;;;;;;;39.00;34.22;;;;;;;;;;5053245;28;20200;-65
2022/08/17 14:18:29;;;;;;;38.90;33.65;;;;;;;;;;5062816;28;20181;-65
2022/08/17 14:20:55;;;;;;;36.20;32.33;;;;;;;;;;5053064;28;20610;-64
2022/08/17 14:23:21;;;;;;;38.38;33.70;;;;;;;;;;5058021;28;20189;-65
2022/08/17 14:25:46;;;;;;;44.13;33.13;;;;;;;;;;5069672;28;20176;-63
2022/08/17 14:28:12;;;;;;;38.50;34.45;;;;;;;;;;5059559;28;20605;-63
2022/08/17 14:30:39;;;;;;;38.97;33.72;;;;;;;;;;5052851;28;20204;-63
2022/08/17 14:33:07;;;;;;;42.97;35.03;;;;;;;;;;5056208;28;20327;-63
2022/08/17 14:35:33;;;;;;;40.97;34.70;;;;;;;;;;5061187;28;20185;-63
2022/08/17 14:38:00;;;;;;;42.97;34.53;;;;;;;;;;5068791;28;20207;-64
2022/08/17 14:40:26;;;;;;;37.95;32.50;;;;;;;;;;5050440;28;20560;-63
2022/08/17 14:42:54;;;;;;;40.90;32.53;;;;;;;;;;5051979;28;20437;-63
2022/08/17 14:45:19;;;;;;;42.38;35.33;;;;;;;;;;5051639;28;20609;-63
2022/08/17 14:47:45;;;;;;;38.95;34.33;;;;;;;;;;5051146;28;20270;-63
2022/08/17 14:50:12;;;;;;;42.45;35.60;;;;;;;;;;5054585;28;20189;-64
2022/08/17 14:52:41;;;;;;;43.03;35.08;;;;;;;;;;5069565;28;20184;-65
2022/08/17 14:55:08;;;;;;;44.30;34.60;;;;;;;;;;5060163;28;20280;-64
2022/08/17 14:57:33;;;;;;;46.03;35.58;;;;;;;;;;5070039;28;20699;-64
2022/08/17 14:59:59;;;;;;;44.45;36.10;;;;;;;;;;5056184;28;20182;-64
2022/08/17 15:02:28;;;;;;;44.47;36.15;;;;;;;;;;5064287;28;20227;-64
2022/08/17 15:04:59;;;;;;;46.38;36.55;;;;;;;;;;5051005;28;20231;-64
2022/08/17 15:07:24;;;;;;;45.28;37.22;;;;;;;;;;5055511;28;20211;-64
2022/08/17 15:09:49;;;;;;;46.33;38.85;;;;;;;;;;5075821;28;20676;-64
2022/08/17 15:12:18;;;;;;;48.53;38.97;;;;;;;;;;5066364;28;20220;-63
2022/08/17 15:14:43;;;;;;;50.33;40.00;;;;;;;;;;5057246;28;20394;-65
2022/08/17 15:17:09;;;;;;;47.65;38.83;;;;;;;;;;5068331;28;20382;-64